createdAt,value
2023-04-05T00:00:29.401Z,98707.27
2023-04-05T00:03:12.148Z,98707.52
2023-04-05T00:05:39.877Z,98708.45
2023-04-05T00:08:12.835Z,98708.71
2023-04-05T00:10:40.194Z,98704.15
2023-04-05T00:13:06.884Z,98714.79
2023-04-05T00:15:35.064Z,98714.75
2023-04-05T00:18:03.280Z,98701.90
2023-04-05T00:20:30.477Z,98693.93
2023-04-05T00:22:57.456Z,98697.27
2023-04-05T00:25:24.504Z,98710.45
2023-04-05T00:27:53.492Z,98716.46
2023-04-05T00:30:20.896Z,98707.00
2023-04-05T00:32:49.535Z,98708.14
2023-04-05T00:35:16.662Z,98699.42
2023-04-05T00:37:43.456Z,98692.23
2023-04-05T00:40:10.734Z,98690.35
2023-04-05T00:42:37.372Z,98685.86
2023-04-05T00:45:04.375Z,98677.15
2023-04-05T00:47:32.145Z,98673.89
2023-04-05T00:49:58.796Z,98677.92
2023-04-05T00:52:31.546Z,98685.66
2023-04-05T00:54:58.795Z,98684.17
2023-04-05T00:57:25.871Z,98683.33
2023-04-05T00:59:53.510Z,98673.47
2023-04-05T01:02:26.192Z,98672.42
2023-04-05T01:05:04.514Z,98665.08
2023-04-05T01:07:38.234Z,98655.67
2023-04-05T01:10:05.944Z,98652.36
2023-04-05T01:12:32.985Z,98639.86
2023-04-05T01:15:00.165Z,98653.08
2023-04-05T01:17:29.515Z,98655.61
2023-04-05T01:20:01.757Z,98661.21
2023-04-05T01:23:00.425Z,98656.85
2023-04-05T01:25:44.908Z,98661.83
2023-04-05T01:28:36.259Z,98657.30
2023-04-05T01:31:33.505Z,98652.55
2023-04-05T01:34:35.645Z,98653.27
2023-04-05T01:37:05.704Z,98657.08
2023-04-05T01:39:32.435Z,98654.57
2023-04-05T01:42:00.692Z,98656.79
2023-04-05T01:44:28.410Z,98653.56
2023-04-05T01:46:55.777Z,98645.59
2023-04-05T01:49:23.854Z,98638.06
2023-04-05T01:51:50.665Z,98634.34
2023-04-05T01:54:17.127Z,98634.22
2023-04-05T01:56:44.073Z,98633.06
2023-04-05T01:59:10.629Z,98633.83
2023-04-05T02:01:39.135Z,98621.11
2023-04-05T02:04:07.213Z,98610.40
2023-04-05T02:06:41.053Z,98618.96
2023-04-05T02:09:08.130Z,98611.73
2023-04-05T02:11:34.803Z,98596.88
2023-04-05T02:14:06.802Z,98591.45
2023-04-05T02:16:33.617Z,98595.73
2023-04-05T02:19:00.327Z,98583.94
2023-04-05T02:21:31.394Z,98594.38
2023-04-05T02:23:58.401Z,98591.07
2023-04-05T02:26:26.175Z,98594.11
2023-04-05T02:28:54.061Z,98583.61
2023-04-05T02:31:21.625Z,98592.17
2023-04-05T02:33:48.760Z,98584.17
2023-04-05T02:36:15.348Z,98587.48
2023-04-05T02:38:42.504Z,98583.83
2023-04-05T02:41:11.080Z,98585.66
2023-04-05T02:43:38.489Z,98595.35
2023-04-05T02:46:05.465Z,98597.17
2023-04-05T02:48:32.469Z,98599.15
2023-04-05T02:50:59.504Z,98602.77
2023-04-05T02:53:26.114Z,98609.20
2023-04-05T02:55:59.217Z,98601.16
2023-04-05T02:58:33.132Z,98596.88
2023-04-05T03:01:06.627Z,98591.31
2023-04-05T03:03:36.872Z,98592.75
2023-04-05T03:06:09.438Z,98595.70
2023-04-05T03:08:48.577Z,98592.27
2023-04-05T03:11:18.870Z,98589.05
2023-04-05T03:13:54.257Z,98592.25
2023-04-05T03:16:41.132Z,98597.58
2023-04-05T03:19:28.111Z,98601.45
2023-04-05T03:21:58.925Z,98601.68
2023-04-05T03:24:30.226Z,98599.67
2023-04-05T03:27:03.657Z,98600.55
2023-04-05T03:29:33.785Z,98597.20
2023-04-05T03:32:11.265Z,98596.52
2023-04-05T03:34:39.076Z,98604.94
2023-04-05T03:37:06.527Z,98592.58
2023-04-05T03:39:47.754Z,98580.65
2023-04-05T03:42:15.517Z,98583.33
2023-04-05T03:44:42.946Z,98587.81
2023-04-05T03:47:12.642Z,98594.67
2023-04-05T03:49:41.528Z,98602.70
2023-04-05T03:52:09.026Z,98603.45
2023-04-05T03:54:36.989Z,98603.22
2023-04-05T03:57:03.943Z,98598.41
2023-04-05T03:59:33.732Z,98601.57
2023-04-05T04:02:01.733Z,98594.92
2023-04-05T04:04:29.082Z,98595.48
2023-04-05T04:06:56.567Z,98589.73
2023-04-05T04:09:27.481Z,98596.52
2023-04-05T04:11:56.288Z,98596.02
2023-04-05T04:14:24.185Z,98591.55
2023-04-05T04:16:57.067Z,98590.34
2023-04-05T04:19:46.891Z,98585.21
2023-04-05T04:22:45.284Z,98584.30
2023-04-05T04:25:30.119Z,98571.23
2023-04-05T04:31:08.582Z,98573.77
2023-04-05T04:33:58.829Z,98575.72
2023-04-05T04:36:47.549Z,98577.63
2023-04-05T04:39:34.319Z,98578.87
2023-04-05T04:42:22.377Z,98577.60
2023-04-05T04:45:25.583Z,98578.68
2023-04-05T04:48:13.537Z,98574.26
2023-04-05T04:50:58.038Z,98578.19
2023-04-05T04:53:25.304Z,98577.05
2023-04-05T04:55:58.439Z,98585.79
2023-04-05T04:58:27.017Z,98582.01
2023-04-05T05:01:08.055Z,98587.96
2023-04-05T05:03:38.991Z,98582.66
2023-04-05T05:06:06.727Z,98584.96
2023-04-05T05:08:34.677Z,98582.00
2023-04-05T05:11:07.004Z,98586.14
2023-04-05T05:13:35.654Z,98589.45
2023-04-05T05:16:03.884Z,98589.73
2023-04-05T05:18:33.090Z,98591.08
2023-04-05T05:21:00.097Z,98585.75
2023-04-05T05:23:26.912Z,98589.14
2023-04-05T05:25:59.075Z,98581.63
2023-04-05T05:28:26.805Z,98572.48
2023-04-05T05:30:53.748Z,98571.05
2023-04-05T05:33:20.803Z,98562.18
2023-04-05T05:35:49.264Z,98563.88
2023-04-05T05:38:16.901Z,98559.84
2023-04-05T05:40:44.038Z,98556.66
2023-04-05T05:43:10.758Z,98554.96
2023-04-05T05:45:37.353Z,98557.34
2023-04-05T05:48:04.375Z,98566.21
2023-04-05T05:50:32.423Z,98565.20
2023-04-05T05:53:02.099Z,98566.34
2023-04-05T05:55:28.819Z,98565.51
2023-04-05T05:57:56.128Z,98566.05
2023-04-05T06:00:23.783Z,98558.73
2023-04-05T06:02:52.210Z,98555.85
2023-04-05T06:05:19.108Z,98559.98
2023-04-05T06:07:46.650Z,98556.91
2023-04-05T06:10:19.651Z,98561.38
2023-04-05T06:12:46.742Z,98558.48
2023-04-05T06:15:13.550Z,98558.58
2023-04-05T06:17:42.080Z,98560.98
2023-04-05T06:20:11.248Z,98565.72
2023-04-05T06:22:43.852Z,98558.54
2023-04-05T06:25:12.334Z,98568.20
2023-04-05T06:27:39.102Z,98563.15
2023-04-05T06:30:06.843Z,98565.67
2023-04-05T06:32:34.022Z,98572.56
2023-04-05T06:35:02.064Z,98579.11
2023-04-05T06:37:32.101Z,98569.44
2023-04-05T06:39:58.675Z,98572.81
2023-04-05T06:42:28.286Z,98559.10
2023-04-05T06:44:58.278Z,98560.46
2023-04-05T06:47:25.664Z,98566.91
2023-04-05T06:49:53.699Z,98570.70
2023-04-05T06:52:20.364Z,98560.98
2023-04-05T06:54:47.222Z,98570.96
2023-04-05T06:57:13.894Z,98576.75
2023-04-05T06:59:41.193Z,98579.13
2023-04-05T07:02:08.109Z,98564.89
2023-04-05T07:04:36.250Z,98566.81
2023-04-05T07:07:03.182Z,98571.39
2023-04-05T07:09:32.174Z,98579.31
2023-04-05T07:12:00.757Z,98566.55
2023-04-05T07:14:29.692Z,98561.05
2023-04-05T07:16:57.666Z,98562.87
2023-04-05T07:19:24.350Z,98562.23
2023-04-05T07:21:51.162Z,98550.74
2023-04-05T07:24:19.872Z,98553.25
2023-04-05T07:26:46.498Z,98540.94
2023-04-05T07:29:17.026Z,98530.89
2023-04-05T07:31:45.719Z,98540.08
2023-04-05T07:34:12.871Z,98535.70
2023-04-05T07:36:39.409Z,98538.48
2023-04-05T07:39:06.918Z,98546.69
2023-04-05T07:41:37.480Z,98552.40
2023-04-05T07:44:04.931Z,98547.52
2023-04-05T07:46:31.611Z,98547.53
2023-04-05T07:48:58.190Z,98540.89
2023-04-05T07:51:26.781Z,98544.59
2023-04-05T07:53:58.353Z,98532.63
2023-04-05T07:56:33.363Z,98547.07
2023-04-05T07:58:59.981Z,98541.34
2023-04-05T08:01:27.310Z,98536.73
2023-04-05T08:03:56.832Z,98531.17
2023-04-05T08:06:29.470Z,98540.38
2023-04-05T08:08:55.954Z,98546.63
2023-04-05T08:11:22.471Z,98543.41
2023-04-05T08:13:49.452Z,98546.14
2023-04-05T08:16:15.963Z,98558.83
2023-04-05T08:18:42.510Z,98554.30
2023-04-05T08:21:09.064Z,98558.74
2023-04-05T08:23:35.734Z,98559.13
2023-04-05T08:26:02.383Z,98563.84
2023-04-05T08:28:30.697Z,98562.34
2023-04-05T08:30:57.291Z,98566.27
2023-04-05T08:33:25.672Z,98565.73
2023-04-05T08:35:52.465Z,98560.36
2023-04-05T08:38:20.600Z,98567.64
2023-04-05T08:40:47.363Z,98556.94
2023-04-05T08:43:48.863Z,98547.55
2023-04-05T08:46:16.130Z,98556.64
2023-04-05T08:48:43.948Z,98548.60
2023-04-05T08:51:10.623Z,98552.86
2023-04-05T08:53:39.209Z,98556.31
2023-04-05T08:56:06.094Z,98551.48
2023-04-05T08:58:35.668Z,98553.84
2023-04-05T09:01:02.209Z,98551.11
2023-04-05T09:03:40.080Z,98549.66
2023-04-05T09:06:08.004Z,98537.88
2023-04-05T09:08:34.675Z,98551.69
2023-04-05T09:11:02.841Z,98540.73
2023-04-05T09:13:30.845Z,98541.92
2023-04-05T09:15:57.458Z,98543.17
2023-04-05T09:18:27.283Z,98528.07
2023-04-05T09:21:05.126Z,98545.07
2023-04-05T09:23:36.414Z,98530.27
2023-04-05T09:26:25.198Z,98527.48
2023-04-05T09:28:56.822Z,98527.58
2023-04-05T09:31:34.372Z,98525.14
2023-04-05T09:34:04.052Z,98540.35
2023-04-05T09:36:33.077Z,98538.02
2023-04-05T09:39:07.048Z,98539.36
2023-04-05T09:41:34.554Z,98537.50
2023-04-05T09:44:01.490Z,98548.90
2023-04-05T09:46:33.480Z,98546.42
2023-04-05T09:49:01.008Z,98542.69
2023-04-05T09:51:32.675Z,98540.64
2023-04-05T09:54:05.463Z,98538.42
2023-04-05T09:56:36.959Z,98535.32
2023-04-05T09:59:08.979Z,98532.43
2023-04-05T10:01:37.649Z,98532.39
2023-04-05T10:04:06.431Z,98523.87
2023-04-05T10:06:40.509Z,98526.73
2023-04-05T10:09:08.203Z,98529.55
2023-04-05T10:11:36.205Z,98531.58
2023-04-05T10:14:04.464Z,98526.96
2023-04-05T10:16:33.701Z,98517.06
2023-04-05T10:19:02.425Z,98524.19
2023-04-05T10:21:32.161Z,98526.91
2023-04-05T10:24:21.453Z,98524.23
2023-04-05T10:26:53.736Z,98521.73
2023-04-05T10:29:29.428Z,98520.34
2023-04-05T10:32:02.292Z,98518.36
2023-04-05T10:34:41.686Z,98522.19
2023-04-05T10:37:08.296Z,98522.67
2023-04-05T10:39:45.236Z,98524.17
2023-04-05T10:42:21.635Z,98525.31
2023-04-05T10:44:52.585Z,98527.97
2023-04-05T10:47:19.379Z,98523.98
2023-04-05T10:49:49.476Z,98524.73
2023-04-05T10:52:16.975Z,98522.88
2023-04-05T10:54:44.242Z,98516.57
2023-04-05T10:57:12.970Z,98514.20
2023-04-05T10:59:44.907Z,98524.73
2023-04-05T11:02:13.360Z,98528.71
2023-04-05T11:04:42.188Z,98534.15
2023-04-05T11:07:13.085Z,98535.89
2023-04-05T11:09:50.307Z,98529.19
2023-04-05T11:12:17.344Z,98529.41
2023-04-05T11:14:44.438Z,98526.91
2023-04-05T11:17:28.474Z,98527.54
2023-04-05T11:20:06.439Z,98525.44
2023-04-05T11:22:34.226Z,98523.13
2023-04-05T11:25:03.500Z,98537.02
2023-04-05T11:27:37.105Z,98535.09
2023-04-05T11:30:11.691Z,98523.89
2023-04-05T11:32:44.461Z,98539.00
2023-04-05T11:35:13.668Z,98530.27
2023-04-05T11:37:54.364Z,98522.01
2023-04-05T11:40:27.551Z,98529.76
2023-04-05T11:43:10.463Z,98528.64
2023-04-05T11:45:40.385Z,98525.45
2023-04-05T11:48:13.423Z,98523.54
2023-04-05T11:50:42.076Z,98527.77
2023-04-05T11:53:16.967Z,98527.55
2023-04-05T11:55:50.568Z,98530.41
2023-04-05T11:58:24.146Z,98521.30
2023-04-05T12:00:59.982Z,98522.38
2023-04-05T12:03:29.520Z,98525.05
2023-04-05T12:05:59.216Z,98523.41
2023-04-05T12:08:40.253Z,98526.08
2023-04-05T12:11:10.156Z,98525.24
2023-04-05T12:13:38.813Z,98529.01
2023-04-05T12:16:08.200Z,98518.73
2023-04-05T12:18:36.911Z,98512.19
2023-04-05T12:21:09.233Z,98509.63
2023-04-05T12:23:37.390Z,98501.69
2023-04-05T12:26:06.696Z,98489.35
2023-04-05T12:28:54.277Z,98494.92
2023-04-05T12:31:42.769Z,98501.39
2023-04-05T12:34:11.419Z,98499.41
2023-04-05T12:36:43.701Z,98496.49
2023-04-05T12:39:11.801Z,98490.05
2023-04-05T12:41:40.786Z,98483.00
2023-04-05T12:44:17.185Z,98482.38
2023-04-05T12:46:46.408Z,98484.03
2023-04-05T12:49:18.498Z,98480.67
2023-04-05T12:51:47.010Z,98465.41
2023-04-05T12:54:20.266Z,98478.51
2023-04-05T12:56:53.091Z,98476.95
2023-04-05T12:59:21.891Z,98472.69
2023-04-05T13:01:50.572Z,98465.13
2023-04-05T13:04:18.606Z,98478.86
2023-04-05T13:06:50.197Z,98473.96
2023-04-05T13:09:18.152Z,98456.34
2023-04-05T13:11:46.184Z,98458.64
2023-04-05T13:14:14.718Z,98460.03
2023-04-05T13:16:43.956Z,98465.98
2023-04-05T13:19:11.831Z,98478.45
2023-04-05T13:21:43.138Z,98477.38
2023-04-05T13:24:13.002Z,98484.58
2023-04-05T13:26:44.078Z,98472.35
2023-04-05T13:29:11.979Z,98483.73
2023-04-05T13:31:41.228Z,98477.42
2023-04-05T13:34:11.715Z,98479.19
2023-04-05T13:36:39.676Z,98478.84
2023-04-05T13:39:07.731Z,98474.39
2023-04-05T13:41:36.289Z,98473.61
2023-04-05T13:44:06.625Z,98473.21
2023-04-05T13:46:35.722Z,98475.10
2023-04-05T13:49:03.694Z,98459.96
2023-04-05T13:51:34.648Z,98455.55
2023-04-05T13:54:02.695Z,98454.18
2023-04-05T13:56:34.790Z,98453.42
2023-04-05T13:59:02.916Z,98453.92
2023-04-05T14:01:31.040Z,98467.67
2023-04-05T14:03:59.189Z,98466.73
2023-04-05T14:06:27.590Z,98471.19
2023-04-05T14:08:56.909Z,98461.85
2023-04-05T14:11:26.529Z,98471.77
2023-04-05T14:13:54.942Z,98460.82
2023-04-05T14:16:22.994Z,98467.83
2023-04-05T14:18:57.468Z,98461.48
2023-04-05T14:21:26.283Z,98451.11
2023-04-05T14:23:57.174Z,98460.02
2023-04-05T14:26:26.241Z,98459.41
2023-04-05T14:28:54.254Z,98453.36
2023-04-05T14:31:23.428Z,98446.70
2023-04-05T14:33:52.462Z,98447.86
2023-04-05T14:36:20.974Z,98439.02
2023-04-05T14:38:56.597Z,98441.16
2023-04-05T14:41:25.066Z,98439.52
2023-04-05T14:43:53.770Z,98434.95
2023-04-05T14:46:22.187Z,98430.87
2023-04-05T14:48:50.355Z,98433.79
2023-04-05T14:51:18.301Z,98431.97
2023-04-05T14:53:46.523Z,98450.10
2023-04-05T14:56:16.110Z,98447.09
2023-04-05T14:58:44.076Z,98441.96
2023-04-05T15:01:12.183Z,98437.66
2023-04-05T15:03:42.079Z,98447.11
2023-04-05T15:06:10.500Z,98449.50
2023-04-05T15:08:38.517Z,98460.40
2023-04-05T15:11:12.541Z,98466.70
2023-04-05T15:13:41.128Z,98472.34
2023-04-05T15:16:10.671Z,98468.48
2023-04-05T15:18:40.303Z,98466.86
2023-04-05T15:21:08.701Z,98476.95
2023-04-05T15:23:40.768Z,98477.55
2023-04-05T15:26:08.965Z,98467.48
2023-04-05T15:28:37.200Z,98457.40
2023-04-05T15:31:05.557Z,98463.48
2023-04-05T15:33:33.866Z,98464.32
2023-04-05T15:36:02.007Z,98454.04
2023-04-05T15:38:31.144Z,98455.75
2023-04-05T15:40:59.027Z,98459.75
2023-04-05T15:43:27.147Z,98467.21
2023-04-05T15:45:55.737Z,98470.77
2023-04-05T15:48:23.746Z,98470.18
2023-04-05T15:50:52.669Z,98477.89
2023-04-05T15:53:20.661Z,98471.84
2023-04-05T15:55:48.743Z,98460.79
2023-04-05T15:58:18.145Z,98457.47
2023-04-05T16:00:47.867Z,98460.66
2023-04-05T16:03:16.536Z,98469.81
2023-04-05T16:05:44.817Z,98467.09
2023-04-05T16:08:13.233Z,98466.89
2023-04-05T16:10:42.700Z,98466.33
2023-04-05T16:13:11.743Z,98458.92
2023-04-05T16:15:40.977Z,98455.89
2023-04-05T16:18:10.668Z,98464.73
2023-04-05T16:20:39.510Z,98455.12
2023-04-05T16:23:08.534Z,98453.44
2023-04-05T16:25:36.441Z,98459.04
2023-04-05T16:28:06.609Z,98452.67
2023-04-05T16:30:35.442Z,98445.16
2023-04-05T16:33:03.733Z,98446.00
2023-04-05T16:35:33.995Z,98452.52
2023-04-05T16:38:02.766Z,98455.46
2023-04-05T16:40:32.783Z,98445.32
2023-04-05T16:43:01.024Z,98449.79
2023-04-05T16:45:30.665Z,98437.73
2023-04-05T16:48:50.373Z,98447.33
2023-04-05T16:51:18.442Z,98453.95
2023-04-05T16:53:47.999Z,98458.52
2023-04-05T16:56:15.986Z,98455.33
2023-04-05T16:58:45.471Z,98458.21
2023-04-05T17:01:13.489Z,98454.46
2023-04-05T17:03:42.333Z,98455.69
2023-04-05T17:06:11.254Z,98445.04
2023-04-05T17:08:40.388Z,98458.30
2023-04-05T17:11:08.379Z,98463.85
2023-04-05T17:13:39.183Z,98459.80
2023-04-05T17:16:07.363Z,98460.08
2023-04-05T17:18:35.906Z,98473.75
2023-04-05T17:21:09.842Z,98469.27
2023-04-05T17:23:39.598Z,98474.00
2023-04-05T17:26:07.719Z,98482.57
2023-04-05T17:28:37.039Z,98471.62
2023-04-05T17:31:05.034Z,98478.79
2023-04-05T17:33:34.866Z,98471.70
2023-04-05T17:36:04.252Z,98469.89
2023-04-05T17:38:35.039Z,98475.43
2023-04-05T17:41:03.352Z,98472.02
2023-04-05T17:43:33.186Z,98476.05
2023-04-05T17:46:02.540Z,98476.65
2023-04-05T17:48:33.004Z,98468.23
2023-04-05T17:51:09.092Z,98476.96
2023-04-05T17:53:38.605Z,98468.71
2023-04-05T17:56:06.548Z,98471.00
2023-04-05T17:58:35.921Z,98475.58
2023-04-05T18:01:05.083Z,98479.56
2023-04-05T18:03:33.463Z,98464.44
2023-04-05T18:06:02.094Z,98467.30
2023-04-05T18:08:37.128Z,98466.30
2023-04-05T18:11:05.590Z,98468.16
2023-04-05T18:13:33.612Z,98470.79
2023-04-05T18:16:04.474Z,98475.48
2023-04-05T18:18:33.927Z,98476.45
2023-04-05T18:21:02.042Z,98469.36
2023-04-05T18:23:31.058Z,98472.75
2023-04-05T18:26:03.066Z,98465.40
2023-04-05T18:28:31.355Z,98464.33
2023-04-05T18:30:59.699Z,98461.48
2023-04-05T18:33:28.765Z,98456.14
2023-04-05T18:35:56.821Z,98453.63
2023-04-05T18:38:25.458Z,98454.44
2023-04-05T18:41:00.885Z,98453.18
2023-04-05T18:43:29.107Z,98453.67
2023-04-05T18:45:57.178Z,98446.33
2023-04-05T18:48:25.551Z,98451.67
2023-04-05T18:50:54.439Z,98443.01
2023-04-05T18:53:22.932Z,98450.16
2023-04-05T18:55:53.620Z,98444.49
2023-04-05T18:58:21.901Z,98439.48
2023-04-05T19:00:50.394Z,98433.28
2023-04-05T19:03:19.659Z,98430.84
2023-04-05T19:05:50.564Z,98428.73
2023-04-05T19:08:20.265Z,98426.85
2023-04-05T19:10:49.273Z,98434.84
2023-04-05T19:13:17.883Z,98431.11
2023-04-05T19:15:48.262Z,98425.24
2023-04-05T19:18:17.337Z,98425.19
2023-04-05T19:20:58.742Z,98424.09
2023-04-05T19:23:28.438Z,98425.28
2023-04-05T19:25:57.150Z,98417.02
2023-04-05T19:28:26.158Z,98414.83
2023-04-05T19:30:54.775Z,98419.99
2023-04-05T19:33:27.007Z,98417.45
2023-04-05T19:35:57.896Z,98402.27
2023-04-05T19:38:26.163Z,98414.35
2023-04-05T19:40:57.971Z,98409.66
2023-04-05T19:43:31.733Z,98402.08
2023-04-05T19:46:00.641Z,98399.48
2023-04-05T19:48:39.824Z,98399.05
2023-04-05T19:51:09.228Z,98388.92
2023-04-05T19:53:46.429Z,98396.13
2023-04-05T19:56:16.888Z,98395.63
2023-04-05T19:58:45.541Z,98386.43
2023-04-05T20:01:29.406Z,98382.27
2023-04-05T20:03:57.680Z,98381.33
2023-04-05T20:06:27.301Z,98381.27
2023-04-05T20:09:01.474Z,98375.87
2023-04-05T20:11:31.049Z,98376.04
2023-04-05T20:14:03.990Z,98376.01
2023-04-05T20:16:34.537Z,98374.02
2023-04-05T20:19:04.828Z,98361.59
2023-04-05T20:21:33.126Z,98363.45
2023-04-05T20:24:02.034Z,98364.58
2023-04-05T20:26:31.487Z,98352.61
2023-04-05T20:29:01.387Z,98349.41
2023-04-05T20:31:33.606Z,98357.95
2023-04-05T20:34:12.556Z,98342.07
2023-04-05T20:36:51.417Z,98340.42
2023-04-05T20:39:23.659Z,98338.58
2023-04-05T20:41:51.606Z,98341.52
2023-04-05T20:44:24.938Z,98329.36
2023-04-05T20:46:54.683Z,98330.80
2023-04-05T20:49:24.234Z,98324.16
2023-04-05T20:51:54.839Z,98324.20
2023-04-05T20:54:22.966Z,98326.14
2023-04-05T20:56:58.434Z,98317.68
2023-04-05T20:59:27.356Z,98314.12
2023-04-05T21:01:55.712Z,98307.52
2023-04-05T21:04:23.756Z,98298.73
2023-04-05T21:06:52.455Z,98303.09
2023-04-05T21:09:20.457Z,98296.35
2023-04-05T21:11:49.332Z,98290.79
2023-04-05T21:14:17.373Z,98293.95
2023-04-05T21:16:45.268Z,98285.10
2023-04-05T21:19:13.433Z,98280.41
2023-04-05T21:21:41.385Z,98291.83
2023-04-05T21:24:09.239Z,98285.21
2023-04-05T21:26:37.157Z,98282.27
2023-04-05T21:29:06.002Z,98294.77
2023-04-05T21:31:34.381Z,98290.37
2023-04-05T21:34:02.343Z,98286.98
2023-04-05T21:36:33.531Z,98287.56
2023-04-05T21:39:01.730Z,98283.91
2023-04-05T21:41:30.038Z,98283.69
2023-04-05T21:43:58.650Z,98278.34
2023-04-05T21:46:27.154Z,98286.04
2023-04-05T21:48:55.205Z,98284.09
2023-04-05T21:51:23.510Z,98287.20
2023-04-05T21:53:51.530Z,98287.67
2023-04-05T21:56:21.374Z,98285.61
2023-04-05T21:58:49.355Z,98284.90
2023-04-05T22:01:17.324Z,98272.63
2023-04-05T22:03:46.043Z,98272.52
2023-04-05T22:06:14.268Z,98276.09
2023-04-05T22:08:42.163Z,98278.30
2023-04-05T22:11:11.304Z,98276.45
2023-04-05T22:13:41.973Z,98274.98
2023-04-05T22:16:10.211Z,98273.65
2023-04-05T22:18:38.699Z,98274.87
2023-04-05T22:21:06.607Z,98271.35
2023-04-05T22:23:34.639Z,98271.80
2023-04-05T22:26:02.550Z,98269.27
2023-04-05T22:28:30.905Z,98255.49
2023-04-05T22:30:58.860Z,98262.67
2023-04-05T22:33:27.754Z,98262.91
2023-04-05T22:35:55.656Z,98253.48
2023-04-05T22:38:23.622Z,98254.16
2023-04-05T22:40:51.670Z,98254.02
2023-04-05T22:43:19.603Z,98261.05
2023-04-05T22:45:53.531Z,98256.41
2023-04-05T22:48:21.984Z,98256.09
2023-04-05T22:50:51.545Z,98248.09
2023-04-05T22:53:19.580Z,98254.54
2023-04-05T22:55:47.960Z,98253.33
2023-04-05T22:58:17.298Z,98256.67
2023-04-05T23:00:45.316Z,98247.55
2023-04-05T23:03:19.386Z,98247.13
2023-04-05T23:05:48.464Z,98241.15
2023-04-05T23:08:16.570Z,98245.34
2023-04-05T23:10:44.840Z,98246.16
2023-04-05T23:13:12.968Z,98254.09
2023-04-05T23:15:41.323Z,98248.94
2023-04-05T23:18:10.973Z,98253.09
2023-04-05T23:20:40.438Z,98249.75
2023-04-05T23:23:08.404Z,98242.52
2023-04-05T23:25:37.071Z,98242.77
2023-04-05T23:28:05.562Z,98245.88
2023-04-05T23:30:35.955Z,98244.14
2023-04-05T23:33:04.981Z,98242.69
2023-04-05T23:35:32.958Z,98236.56
2023-04-05T23:38:01.338Z,98243.78
2023-04-05T23:40:29.595Z,98241.48
2023-04-05T23:42:57.913Z,98236.31
2023-04-05T23:45:27.168Z,98240.98
2023-04-05T23:47:59.856Z,98237.16
2023-04-05T23:50:28.025Z,98237.61
2023-04-05T23:52:58.033Z,98225.42
2023-04-05T23:55:26.453Z,98232.08
2023-04-05T23:57:57.886Z,98234.75
